Time;durP1;ratioP1;P1;durP2;ratioP2;P2;SDS_P1;SDS_P2;PMS_P1;PMS_P2;Temp;Humidity;BMP_temperature;BMP_pressure;BME280_temperature;BME280_humidity;BME280_pressure;Samples;Min_cycle;Max_cycle;Signal;HPM_P1;HPM_P2
2021/08/24 00:01:48;;;;;;;5.57;3.60;;;;;;;;;;5111316;28;20030;-69
2021/08/24 00:04:14;;;;;;;4.85;3.20;;;;;;;;;;5109561;28;20026;-69
2021/08/24 00:06:40;;;;;;;5.32;3.30;;;;;;;;;;5111176;28;20502;-68
2021/08/24 00:09:06;;;;;;;9.00;3.92;;;;;;;;;;5111378;28;20053;-69
2021/08/24 00:11:34;;;;;;;6.47;3.78;;;;;;;;;;5111109;28;20472;-68
2021/08/24 00:15:20;;;;;;;6.35;4.03;;;;;;;;;;5111934;27;20400;-68
2021/08/24 00:17:47;;;;;;;11.48;5.60;;;;;;;;;;5111399;28;20024;-68
2021/08/24 00:20:13;;;;;;;7.15;4.25;;;;;;;;;;5126909;28;20027;-68
2021/08/24 00:23:01;;;;;;;10.32;4.65;;;;;;;;;;5112115;27;20931;-67
2021/08/24 00:25:27;;;;;;;7.35;4.45;;;;;;;;;;5110931;28;20127;-69
2021/08/24 00:29:45;;;;;;;7.45;4.47;;;;;;;;;;5111541;27;20528;-67
2021/08/24 00:34:01;;;;;;;6.45;4.38;;;;;;;;;;5110961;27;20392;-66
2021/08/24 00:36:27;;;;;;;9.52;4.63;;;;;;;;;;5110042;28;20081;-66
2021/08/24 00:40:05;;;;;;;7.35;4.63;;;;;;;;;;5111280;27;20520;-67
2021/08/24 00:42:31;;;;;;;7.22;4.28;;;;;;;;;;5111313;28;20024;-68
2021/08/24 00:46:15;;;;;;;8.30;4.55;;;;;;;;;;5111021;27;20513;-67
2021/08/24 00:48:59;;;;;;;7.53;4.20;;;;;;;;;;5111761;27;20510;-66
2021/08/24 00:51:26;;;;;;;8.85;5.78;;;;;;;;;;5111322;28;20031;-66
2021/08/24 00:53:52;;;;;;;10.38;5.65;;;;;;;;;;5110803;28;20476;-66
2021/08/24 00:56:19;;;;;;;9.43;5.68;;;;;;;;;;5111253;28;20420;-68
2021/08/24 00:58:45;;;;;;;10.32;5.10;;;;;;;;;;5111186;28;20512;-67
2021/08/24 01:06:29;;;;;;;11.73;5.53;;;;;;;;;;5043462;27;2133200;-66
2021/08/24 01:09:02;;;;;;;8.32;4.95;;;;;;;;;;5110917;28;20028;-66
2021/08/24 01:11:37;;;;;;;10.50;6.55;;;;;;;;;;5110085;28;20092;-67
2021/08/24 01:14:22;;;;;;;7.28;4.00;;;;;;;;;;5109700;28;20027;-67
2021/08/24 01:19:01;;;;;;;7.40;4.95;;;;;;;;;;5071198;28;20433;-67
2021/08/24 01:21:44;;;;;;;7.93;5.07;;;;;;;;;;5069216;28;20388;-66
2021/08/24 01:26:16;;;;;;;7.80;4.95;;;;;;;;;;5112056;27;20900;-68
2021/08/24 01:28:59;;;;;;;9.18;5.03;;;;;;;;;;5126905;28;20056;-68
2021/08/24 01:31:53;;;;;;;9.15;6.10;;;;;;;;;;5111398;28;20016;-67
2021/08/24 01:36:10;;;;;;;7.38;5.00;;;;;;;;;;5111363;27;20408;-68
2021/08/24 01:38:41;;;;;;;7.65;4.75;;;;;;;;;;5111689;28;20023;-66
2021/08/24 01:41:22;;;;;;;7.30;4.90;;;;;;;;;;5110017;28;20383;-67
2021/08/24 01:43:54;;;;;;;7.50;4.55;;;;;;;;;;5110962;28;20039;-66
2021/08/24 01:48:32;;;;;;;6.53;4.57;;;;;;;;;;5071354;28;20494;-66
2021/08/24 01:51:09;;;;;;;8.88;5.07;;;;;;;;;;5070328;28;20103;-66
2021/08/24 01:53:39;;;;;;;9.10;5.88;;;;;;;;;;5069457;28;20079;-68
2021/08/24 01:56:11;;;;;;;8.82;5.13;;;;;;;;;;5069436;28;20477;-66
2021/08/24 01:58:40;;;;;;;6.72;4.72;;;;;;;;;;5068897;28;20033;-66
2021/08/24 02:01:09;;;;;;;7.82;5.43;;;;;;;;;;5070637;28;20078;-66
2021/08/24 02:04:58;;;;;;;7.90;5.40;;;;;;;;;;5111328;27;20404;-68
2021/08/24 02:07:25;;;;;;;7.72;5.32;;;;;;;;;;5111382;28;20392;-66
2021/08/24 02:09:54;;;;;;;8.77;6.00;;;;;;;;;;5111360;28;20028;-66
2021/08/24 02:12:23;;;;;;;8.55;6.05;;;;;;;;;;5110820;28;20096;-67
2021/08/24 02:14:49;;;;;;;10.80;5.72;;;;;;;;;;5111770;28;20020;-68
2021/08/24 02:19:29;;;;;;;9.85;5.93;;;;;;;;;;5111031;27;20458;-67
2021/08/24 02:21:59;;;;;;;8.43;5.50;;;;;;;;;;5111415;28;20031;-67
2021/08/24 02:24:31;;;;;;;8.43;5.00;;;;;;;;;;5109636;28;20455;-68
2021/08/24 02:26:58;;;;;;;7.80;4.93;;;;;;;;;;5109966;28;20028;-67
2021/08/24 02:29:24;;;;;;;9.23;5.88;;;;;;;;;;5111450;28;20016;-67
2021/08/24 02:34:06;;;;;;;7.85;5.30;;;;;;;;;;5112092;27;20468;-66
2021/08/24 02:40:34;;;;;;;9.00;5.30;;;;;;;;;;5111089;27;20532;-66
2021/08/24 02:43:01;;;;;;;8.70;5.38;;;;;;;;;;5111474;28;20450;-66
2021/08/24 02:47:08;;;;;;;8.20;5.03;;;;;;;;;;5111083;27;20389;-66
2021/08/24 02:49:34;;;;;;;10.82;5.75;;;;;;;;;;5109923;28;20477;-67
2021/08/24 02:52:02;;;;;;;9.15;6.22;;;;;;;;;;5109961;28;20024;-67
2021/08/24 02:54:30;;;;;;;8.00;4.93;;;;;;;;;;5110832;28;20038;-67
2021/08/24 02:57:29;;;;;;;8.52;5.20;;;;;;;;;;5111954;27;20416;-67
2021/08/24 02:59:56;;;;;;;7.35;5.15;;;;;;;;;;5110927;28;20391;-67
2021/08/24 03:03:18;;;;;;;10.05;6.13;;;;;;;;;;5112161;27;20411;-69
2021/08/24 03:05:45;;;;;;;9.68;5.60;;;;;;;;;;5111445;28;20098;-70
2021/08/24 03:10:53;;;;;;;9.57;6.25;;;;;;;;;;5111483;27;20400;-68
2021/08/24 03:14:37;;;;;;;8.55;5.13;;;;;;;;;;5111480;27;20896;-68
2021/08/24 03:18:17;;;;;;;10.63;5.70;;;;;;;;;;5111796;27;20516;-66
2021/08/24 03:23:06;;;;;;;10.50;6.60;;;;;;;;;;5070627;28;20528;-68
2021/08/24 03:25:32;;;;;;;9.27;6.20;;;;;;;;;;5070807;28;20029;-66
2021/08/24 03:27:58;;;;;;;16.27;6.10;;;;;;;;;;5070480;28;20381;-66
2021/08/24 03:34:03;;;;;;;10.40;6.40;;;;;;;;;;5111797;27;20494;-68
2021/08/24 03:36:59;;;;;;;8.57;5.30;;;;;;;;;;5111127;27;20585;-68
2021/08/24 03:40:07;;;;;;;7.43;5.45;;;;;;;;;;5091049;28;20667;-67
2021/08/24 03:43:18;;;;;;;11.48;7.03;;;;;;;;;;5070621;28;20411;-66
2021/08/24 03:45:44;;;;;;;8.27;5.93;;;;;;;;;;5070828;28;20440;-67
2021/08/24 03:48:20;;;;;;;12.68;6.63;;;;;;;;;;5112096;27;20385;-66
2021/08/24 03:50:47;;;;;;;9.32;6.03;;;;;;;;;;5110925;28;20477;-67
2021/08/24 03:53:13;;;;;;;8.55;6.30;;;;;;;;;;5111292;28;20028;-67
2021/08/24 03:55:39;;;;;;;12.82;6.57;;;;;;;;;;5111368;28;20024;-66
2021/08/24 04:02:55;;;;;;;8.05;5.70;;;;;;;;;;5111746;27;20380;-67
2021/08/24 04:05:21;;;;;;;8.57;6.20;;;;;;;;;;5111303;28;20020;-67
2021/08/24 04:07:48;;;;;;;8.38;5.53;;;;;;;;;;5109957;28;20047;-67
2021/08/24 04:10:14;;;;;;;8.27;6.03;;;;;;;;;;5110848;28;20027;-68
2021/08/24 04:12:40;;;;;;;10.48;6.10;;;;;;;;;;5111176;28;20024;-69
2021/08/24 04:16:10;;;;;;;8.32;5.28;;;;;;;;;;5111780;27;20792;-69
2021/08/24 04:18:36;;;;;;;9.05;5.32;;;;;;;;;;5110939;28;20494;-69
2021/08/24 04:21:06;;;;;;;9.50;5.35;;;;;;;;;;5111271;28;20024;-69
2021/08/24 04:29:19;;;;;;;7.47;5.10;;;;;;;;;;5111461;27;20392;-68
2021/08/24 04:35:17;;;;;;;9.90;5.80;;;;;;;;;;5111569;27;20385;-66
2021/08/24 04:37:44;;;;;;;10.27;6.00;;;;;;;;;;5110031;28;20034;-66
2021/08/24 04:42:56;;;;;;;8.57;5.07;;;;;;;;;;5111956;27;20772;-66
2021/08/24 04:45:22;;;;;;;10.68;5.93;;;;;;;;;;5111166;28;20043;-66
2021/08/24 04:47:48;;;;;;;8.80;5.78;;;;;;;;;;5111313;28;20440;-67
2021/08/24 04:50:15;;;;;;;8.88;6.50;;;;;;;;;;5111246;28;20020;-66
2021/08/24 04:52:41;;;;;;;8.27;5.50;;;;;;;;;;5110719;28;20066;-69
2021/08/24 04:55:07;;;;;;;9.93;5.55;;;;;;;;;;5127075;28;20464;-69
2021/08/24 04:57:34;;;;;;;18.83;6.47;;;;;;;;;;5111158;28;20027;-69
2021/08/24 05:01:57;;;;;;;10.82;5.00;;;;;;;;;;5111597;27;20450;-68
2021/08/24 05:04:24;;;;;;;7.15;4.78;;;;;;;;;;5111143;28;20020;-67
2021/08/24 05:06:51;;;;;;;8.00;5.05;;;;;;;;;;5120264;28;20023;-67
2021/08/24 05:11:44;;;;;;;10.50;5.65;;;;;;;;;;5111906;27;20457;-66
2021/08/24 05:14:11;;;;;;;7.97;5.18;;;;;;;;;;5110267;28;20472;-66
2021/08/24 05:17:06;;;;;;;7.88;5.20;;;;;;;;;;5090803;27;20475;-66
2021/08/24 05:19:32;;;;;;;10.00;5.30;;;;;;;;;;5091267;28;20108;-67
2021/08/24 05:21:58;;;;;;;8.10;4.78;;;;;;;;;;5089116;28;20031;-67
2021/08/24 05:25:08;;;;;;;8.45;5.00;;;;;;;;;;5111128;27;20380;-68
2021/08/24 05:27:34;;;;;;;8.27;4.82;;;;;;;;;;5109456;28;20549;-67
2021/08/24 05:30:45;;;;;;;8.45;4.53;;;;;;;;;;5123173;27;20397;-67
2021/08/24 05:33:11;;;;;;;8.95;5.05;;;;;;;;;;5111016;28;20506;-70
2021/08/24 05:35:37;;;;;;;8.27;5.30;;;;;;;;;;5110208;28;20015;-68
2021/08/24 05:38:03;;;;;;;9.27;6.05;;;;;;;;;;5109017;28;20103;-68
2021/08/24 05:40:29;;;;;;;9.15;5.03;;;;;;;;;;5108925;28;20020;-67
2021/08/24 05:42:56;;;;;;;9.40;5.18;;;;;;;;;;5119198;28;20043;-68
2021/08/24 05:47:13;;;;;;;7.82;4.85;;;;;;;;;;5108416;27;20110;-66
2021/08/24 05:49:40;;;;;;;7.25;4.38;;;;;;;;;;5088822;28;20032;-66
2021/08/24 05:52:09;;;;;;;6.43;4.40;;;;;;;;;;5089455;28;20028;-67
2021/08/24 05:54:35;;;;;;;11.07;4.60;;;;;;;;;;5090496;28;20091;-66
2021/08/24 05:57:02;;;;;;;7.00;4.45;;;;;;;;;;5090034;28;20107;-68
2021/08/24 06:03:51;;;;;;;10.30;4.88;;;;;;;;;;5111022;27;20404;-69
2021/08/24 06:06:20;;;;;;;7.85;4.78;;;;;;;;;;5111297;28;20044;-69
2021/08/24 06:08:46;;;;;;;10.73;7.18;;;;;;;;;;5110997;28;20472;-68
2021/08/24 06:11:23;;;;;;;8.48;4.88;;;;;;;;;;5110373;28;20023;-68
2021/08/24 06:14:44;;;;;;;11.85;5.72;;;;;;;;;;5110759;27;20418;-67
2021/08/24 06:17:10;;;;;;;6.55;4.40;;;;;;;;;;5110403;28;20601;-67
2021/08/24 06:19:36;;;;;;;7.28;4.30;;;;;;;;;;5109613;28;20023;-66
2021/08/24 06:22:03;;;;;;;6.93;4.20;;;;;;;;;;5110958;28;20024;-66
2021/08/24 06:24:30;;;;;;;9.13;5.03;;;;;;;;;;5109059;28;20036;-66
2021/08/24 06:26:57;;;;;;;6.90;4.05;;;;;;;;;;5110613;28;20020;-66
2021/08/24 06:29:23;;;;;;;6.93;4.30;;;;;;;;;;5110818;28;20107;-66
2021/08/24 06:32:52;;;;;;;9.20;4.47;;;;;;;;;;5110632;27;20422;-69
2021/08/24 06:35:19;;;;;;;9.35;4.47;;;;;;;;;;5111072;28;20538;-69
2021/08/24 06:38:53;;;;;;;6.30;4.20;;;;;;;;;;5110461;27;20416;-67
2021/08/24 06:41:20;;;;;;;7.03;3.83;;;;;;;;;;5111105;28;20081;-67
2021/08/24 06:43:46;;;;;;;6.07;4.00;;;;;;;;;;5127018;28;20451;-67
2021/08/24 06:46:12;;;;;;;6.40;3.88;;;;;;;;;;5125518;28;20024;-67
2021/08/24 06:49:51;;;;;;;6.20;3.80;;;;;;;;;;5106631;27;20389;-69
2021/08/24 06:52:18;;;;;;;9.00;3.95;;;;;;;;;;5110206;28;20028;-68
2021/08/24 06:54:44;;;;;;;7.88;4.07;;;;;;;;;;5110676;28;20032;-68
2021/08/24 06:57:10;;;;;;;7.35;4.10;;;;;;;;;;5109913;28;20480;-68
2021/08/24 06:59:38;;;;;;;8.25;4.53;;;;;;;;;;5107986;28;20028;-67
2021/08/24 07:02:05;;;;;;;8.80;4.32;;;;;;;;;;5103816;28;20387;-67
2021/08/24 07:04:31;;;;;;;6.25;3.75;;;;;;;;;;5099557;28;20369;-68
2021/08/24 07:06:57;;;;;;;6.05;3.53;;;;;;;;;;5089855;28;20415;-68
2021/08/24 07:09:23;;;;;;;7.55;4.30;;;;;;;;;;5090477;28;20032;-68
2021/08/24 07:11:49;;;;;;;7.38;4.13;;;;;;;;;;5090256;28;20096;-68
2021/08/24 07:14:16;;;;;;;5.78;3.85;;;;;;;;;;5089962;28;20028;-68
2021/08/24 07:16:43;;;;;;;6.22;3.40;;;;;;;;;;5089992;28;20527;-67
2021/08/24 07:19:09;;;;;;;7.10;3.72;;;;;;;;;;5089689;28;20059;-67
2021/08/24 07:21:35;;;;;;;5.70;4.15;;;;;;;;;;5087437;28;20028;-74
2021/08/24 07:24:02;;;;;;;13.02;4.57;;;;;;;;;;5087326;28;20029;-74
2021/08/24 07:26:30;;;;;;;9.75;4.72;;;;;;;;;;5095806;28;20024;-74
2021/08/24 07:28:56;;;;;;;7.43;3.83;;;;;;;;;;5107788;28;20028;-73
2021/08/24 07:33:24;;;;;;;7.82;4.25;;;;;;;;;;5109360;27;20385;-74
2021/08/24 07:35:50;;;;;;;7.97;4.25;;;;;;;;;;5107118;28;20094;-73
2021/08/24 07:38:17;;;;;;;8.38;5.00;;;;;;;;;;5108109;28;20418;-74
2021/08/24 07:40:43;;;;;;;7.10;4.50;;;;;;;;;;5107686;28;20027;-73
2021/08/24 07:43:10;;;;;;;6.47;3.35;;;;;;;;;;5109110;28;20073;-71
2021/08/24 07:45:36;;;;;;;7.05;4.03;;;;;;;;;;5104280;28;20019;-73
2021/08/24 07:48:02;;;;;;;7.10;4.15;;;;;;;;;;5108248;28;20074;-74
2021/08/24 07:50:28;;;;;;;7.55;4.07;;;;;;;;;;5130937;28;20019;-72
2021/08/24 07:52:55;;;;;;;10.05;4.32;;;;;;;;;;5130991;28;20365;-76
2021/08/24 07:55:46;;;;;;;6.15;3.72;;;;;;;;;;5110798;27;20458;-74
2021/08/24 07:58:13;;;;;;;9.27;4.15;;;;;;;;;;5109748;28;20031;-74
2021/08/24 08:00:39;;;;;;;6.22;3.58;;;;;;;;;;5110820;28;20050;-72
2021/08/24 08:03:05;;;;;;;6.63;3.80;;;;;;;;;;5110360;28;20555;-77
2021/08/24 08:05:41;;;;;;;7.38;4.78;;;;;;;;;;5110875;27;20454;-73
2021/08/24 08:08:07;;;;;;;;;;;;;;;;;;5107086;28;20442;-71
2021/08/24 08:10:33;;;;;;;;;;;;;;;;;;5107820;28;19904;-73
2021/08/24 08:12:59;;;;;;;;;;;;;;;;;;5110481;28;19910;-71
2021/08/24 08:15:26;;;;;;;;;;;;;;;;;;5109800;28;20330;-69
2021/08/24 08:17:52;;;;;;;;;;;;;;;;;;5107943;28;19908;-75
2021/08/24 08:20:18;;;;;;;;;;;;;;;;;;5108197;28;19949;-67
2021/08/24 08:22:47;;;;;;;;;;;;;;;;;;5109314;28;19911;-70
2021/08/24 08:25:13;;;;;;;;;;;;;;;;;;5109389;28;19963;-71
2021/08/24 08:27:39;;;;;;;;;;;;;;;;;;5107602;28;19904;-78
2021/08/24 08:30:05;;;;;;;;;;;;;;;;;;5107350;28;19904;-78
2021/08/24 08:32:31;;;;;;;;;;;;;;;;;;5118698;28;19914;-77
2021/08/24 08:34:57;;;;;;;;;;;;;;;;;;5115665;28;20257;-79
2021/08/24 08:37:23;;;;;;;;;;;;;;;;;;5110105;28;19943;-79
2021/08/24 08:39:49;;;;;;;;;;;;;;;;;;5109666;28;19904;-82
2021/08/24 08:42:15;;;;;;;;;;;;;;;;;;5111238;28;20002;-78
2021/08/24 08:44:41;;;;;;;;;;;;;;;;;;5110831;28;20379;-78
2021/08/24 08:47:07;;;;;;;;;;;;;;;;;;5106747;28;19912;-82
2021/08/24 08:49:33;;;;;;;;;;;;;;;;;;5109325;28;20391;-80
2021/08/24 08:51:59;;;;;;;;;;;;;;;;;;5108412;28;19904;-78
2021/08/24 08:54:26;;;;;;;;;;;;;;;;;;5110730;28;19995;-79
2021/08/24 08:56:52;;;;;;;;;;;;;;;;;;5110167;28;20568;-81
2021/08/24 08:59:18;;;;;;;;;;;;;;;;;;5106309;28;19994;-78
2021/08/24 09:01:44;;;;;;;;;;;;;;;;;;5108967;28;19990;-79
2021/08/24 09:04:10;;;;;;;;;;;;;;;;;;5107883;28;20400;-82
2021/08/24 09:06:36;;;;;;;;;;;;;;;;;;5108354;28;19904;-81
2021/08/24 09:09:02;;;;;;;;;;;;;;;;;;5109867;28;19915;-73
2021/08/24 09:11:28;;;;;;;;;;;;;;;;;;5109736;28;19932;-75
2021/08/24 09:13:54;;;;;;;;;;;;;;;;;;5109727;28;20002;-77
2021/08/24 09:16:20;;;;;;;;;;;;;;;;;;5100274;28;19908;-75
2021/08/24 09:18:46;;;;;;;;;;;;;;;;;;5096407;28;19930;-72
2021/08/24 09:21:12;;;;;;;;;;;;;;;;;;5096006;28;20320;-71
2021/08/24 09:23:38;;;;;;;;;;;;;;;;;;5096511;28;19908;-72
2021/08/24 09:26:04;;;;;;;;;;;;;;;;;;5096359;28;19931;-70
2021/08/24 09:28:30;;;;;;;;;;;;;;;;;;5096137;28;19904;-71
2021/08/24 09:30:56;;;;;;;;;;;;;;;;;;5096039;28;20412;-79
2021/08/24 09:33:22;;;;;;;;;;;;;;;;;;5096115;28;19911;-82
2021/08/24 09:35:48;;;;;;;;;;;;;;;;;;5096442;28;19904;-72
2021/08/24 09:38:14;;;;;;;;;;;;;;;;;;5096234;28;20261;-73
2021/08/24 09:40:40;;;;;;;;;;;;;;;;;;5095721;28;19930;-72
2021/08/24 09:43:06;;;;;;;;;;;;;;;;;;5096090;28;19911;-70
2021/08/24 09:45:32;;;;;;;;;;;;;;;;;;5095873;28;19912;-71
2021/08/24 09:47:58;;;;;;;;;;;;;;;;;;5094825;28;20078;-74
2021/08/24 09:50:24;;;;;;;;;;;;;;;;;;5095912;28;19939;-74
2021/08/24 09:52:50;;;;;;;;;;;;;;;;;;5095869;28;19965;-73
2021/08/24 09:55:16;;;;;;;;;;;;;;;;;;5095196;28;19908;-74
2021/08/24 09:57:42;;;;;;;;;;;;;;;;;;5095859;28;19927;-73
2021/08/24 10:00:08;;;;;;;;;;;;;;;;;;5096016;28;19957;-73
2021/08/24 10:02:35;;;;;;;;;;;;;;;;;;5094085;28;20333;-77
2021/08/24 10:05:01;;;;;;;;;;;;;;;;;;5095404;28;19950;-76
2021/08/24 10:07:27;;;;;;;;;;;;;;;;;;5095794;28;19907;-81
2021/08/24 10:09:53;;;;;;;;;;;;;;;;;;5095390;28;20384;-80
2021/08/24 10:12:19;;;;;;;;;;;;;;;;;;5095534;28;19903;-78
2021/08/24 10:14:45;;;;;;;;;;;;;;;;;;5095483;28;20275;-79
2021/08/24 10:17:11;;;;;;;;;;;;;;;;;;5095184;28;19904;-80
2021/08/24 10:19:37;;;;;;;;;;;;;;;;;;5095845;28;19904;-80
2021/08/24 10:22:03;;;;;;;;;;;;;;;;;;5095760;28;19904;-79
2021/08/24 10:24:29;;;;;;;;;;;;;;;;;;5094914;28;20414;-78
2021/08/24 10:26:55;;;;;;;;;;;;;;;;;;5094013;28;19912;-79
2021/08/24 10:29:21;;;;;;;;;;;;;;;;;;5094981;28;19911;-82
2021/08/24 10:31:47;;;;;;;;;;;;;;;;;;5094148;28;19904;-80
2021/08/24 10:34:13;;;;;;;;;;;;;;;;;;5095646;28;20070;-82
2021/08/24 10:36:39;;;;;;;;;;;;;;;;;;5094695;28;19903;-81
2021/08/24 10:39:18;;;;;;;8.52;3.92;;;;;;;;;;5094120;28;20385;-83
2021/08/24 10:41:47;;;;;;;7.90;3.80;;;;;;;;;;5094874;28;20418;-76
2021/08/24 10:44:20;;;;;;;5.50;3.40;;;;;;;;;;5094023;28;20036;-74
2021/08/24 10:47:06;;;;;;;5.78;3.50;;;;;;;;;;5092406;28;20023;-82
2021/08/24 10:49:33;;;;;;;5.60;3.63;;;;;;;;;;5080190;28;20443;-78
2021/08/24 10:52:09;;;;;;;7.82;3.35;;;;;;;;;;5094198;28;20091;-78
2021/08/24 10:54:44;;;;;;;4.78;3.22;;;;;;;;;;5094394;28;20024;-78
2021/08/24 10:57:10;;;;;;;7.25;3.50;;;;;;;;;;5094657;28;20028;-75
2021/08/24 10:59:55;;;;;;;6.88;4.20;;;;;;;;;;5093993;28;20032;-75
2021/08/24 11:02:21;;;;;;;7.65;3.80;;;;;;;;;;5094378;28;20040;-74
2021/08/24 11:05:07;;;;;;;5.20;3.20;;;;;;;;;;5093541;28;20048;-67
2021/08/24 11:07:36;;;;;;;5.13;3.20;;;;;;;;;;5094429;28;20095;-67
2021/08/24 11:10:06;;;;;;;6.38;3.38;;;;;;;;;;5094280;28;20020;-65
2021/08/24 11:12:51;;;;;;;5.82;3.75;;;;;;;;;;5092540;28;20376;-68
2021/08/24 11:15:40;;;;;;;5.82;3.30;;;;;;;;;;5094189;28;20095;-69
2021/08/24 11:18:18;;;;;;;12.00;4.28;;;;;;;;;;5065477;28;20522;-68
2021/08/24 11:20:49;;;;;;;11.65;4.18;;;;;;;;;;5093750;28;20483;-69
2021/08/24 11:23:29;;;;;;;5.38;3.42;;;;;;;;;;5094139;28;20032;-69
2021/08/24 11:26:09;;;;;;;5.78;3.58;;;;;;;;;;5093805;28;20403;-68
2021/08/24 11:28:47;;;;;;;5.07;3.15;;;;;;;;;;5094169;28;20020;-68
2021/08/24 11:31:34;;;;;;;8.77;3.75;;;;;;;;;;5093978;28;20032;-68
2021/08/24 11:34:13;;;;;;;7.85;3.85;;;;;;;;;;5093544;28;20050;-68
2021/08/24 11:36:47;;;;;;;4.60;3.40;;;;;;;;;;5093842;28;20085;-68
2021/08/24 11:39:16;;;;;;;6.85;3.72;;;;;;;;;;5093630;28;20029;-68
2021/08/24 11:41:45;;;;;;;6.43;3.70;;;;;;;;;;5090900;28;20020;-70
2021/08/24 11:44:21;;;;;;;5.30;3.50;;;;;;;;;;5096520;28;20488;-71
2021/08/24 11:47:16;;;;;;;7.68;3.83;;;;;;;;;;5093260;28;20099;-68
2021/08/24 11:49:45;;;;;;;6.05;3.78;;;;;;;;;;5080361;28;20032;-68
2021/08/24 11:52:15;;;;;;;5.45;3.38;;;;;;;;;;5093316;28;20078;-69
2021/08/24 11:54:44;;;;;;;5.63;3.42;;;;;;;;;;5092537;28;20135;-69
2021/08/24 11:57:30;;;;;;;6.80;3.72;;;;;;;;;;5087861;28;20027;-68
2021/08/24 11:59:57;;;;;;;5.43;3.53;;;;;;;;;;5090023;28;20061;-71
2021/08/24 12:02:25;;;;;;;6.78;3.78;;;;;;;;;;5092448;28;20541;-69
2021/08/24 12:04:52;;;;;;;5.68;3.67;;;;;;;;;;5093104;28;20052;-70
2021/08/24 12:07:33;;;;;;;6.00;3.72;;;;;;;;;;5093265;28;20024;-70
2021/08/24 12:10:02;;;;;;;5.72;3.47;;;;;;;;;;5092883;28;20028;-69
2021/08/24 12:12:31;;;;;;;7.03;3.05;;;;;;;;;;5093157;28;20023;-69
2021/08/24 12:14:59;;;;;;;4.85;3.00;;;;;;;;;;5092999;28;20083;-70
2021/08/24 12:17:27;;;;;;;5.75;3.25;;;;;;;;;;5092647;28;20016;-69
2021/08/24 12:20:05;;;;;;;4.90;3.20;;;;;;;;;;5090363;28;20032;-69
2021/08/24 12:22:37;;;;;;;5.22;3.13;;;;;;;;;;5089441;28;20032;-68
2021/08/24 12:25:09;;;;;;;6.28;2.70;;;;;;;;;;5091524;28;20039;-69
2021/08/24 12:27:43;;;;;;;4.45;3.10;;;;;;;;;;5091849;28;20021;-68
2021/08/24 12:30:29;;;;;;;4.32;2.67;;;;;;;;;;5092474;28;20440;-71
2021/08/24 12:32:56;;;;;;;6.13;3.05;;;;;;;;;;5091499;28;20036;-70
2021/08/24 12:35:40;;;;;;;4.53;2.97;;;;;;;;;;5113248;28;20015;-69
2021/08/24 12:38:07;;;;;;;4.82;2.97;;;;;;;;;;5111733;28;20476;-70
2021/08/24 12:40:55;;;;;;;4.57;2.80;;;;;;;;;;5113504;28;20099;-71
2021/08/24 12:43:38;;;;;;;5.22;2.83;;;;;;;;;;5112677;28;20098;-70
2021/08/24 12:46:19;;;;;;;7.10;2.75;;;;;;;;;;5113364;28;20039;-70
2021/08/24 12:49:04;;;;;;;4.78;2.92;;;;;;;;;;5113378;28;20020;-70
2021/08/24 12:51:31;;;;;;;4.65;2.53;;;;;;;;;;5115033;28;20048;-71
2021/08/24 12:54:02;;;;;;;4.32;2.53;;;;;;;;;;5117239;28;20054;-69
2021/08/24 12:56:37;;;;;;;5.43;2.88;;;;;;;;;;5117142;28;20027;-71
2021/08/24 12:59:04;;;;;;;5.55;2.67;;;;;;;;;;5115322;28;20051;-70
2021/08/24 13:01:30;;;;;;;5.30;2.90;;;;;;;;;;5116897;28;20027;-70
2021/08/24 13:04:06;;;;;;;5.63;2.78;;;;;;;;;;5116558;28;20155;-71
2021/08/24 13:06:37;;;;;;;4.40;2.67;;;;;;;;;;5114925;28;20520;-70
2021/08/24 13:09:19;;;;;;;4.13;2.70;;;;;;;;;;5116796;28;20073;-70
2021/08/24 13:12:03;;;;;;;4.22;2.65;;;;;;;;;;5115994;28;20483;-70
2021/08/24 13:14:50;;;;;;;5.18;3.22;;;;;;;;;;5107620;28;20016;-70
2021/08/24 13:17:21;;;;;;;4.82;3.05;;;;;;;;;;5092913;28;20016;-70
2021/08/24 13:19:52;;;;;;;4.20;2.65;;;;;;;;;;5093813;28;20020;-71
2021/08/24 13:22:35;;;;;;;5.75;2.95;;;;;;;;;;5094279;28;20028;-71
2021/08/24 13:25:02;;;;;;;5.47;3.05;;;;;;;;;;5094686;28;20500;-71
2021/08/24 13:27:31;;;;;;;4.55;2.42;;;;;;;;;;5095111;28;20103;-70
2021/08/24 13:30:03;;;;;;;5.30;2.70;;;;;;;;;;5094320;28;20438;-70
2021/08/24 13:32:33;;;;;;;6.50;2.90;;;;;;;;;;5095660;28;20020;-71
2021/08/24 13:35:00;;;;;;;4.93;3.13;;;;;;;;;;5094743;28;20028;-71
2021/08/24 13:37:35;;;;;;;5.60;2.58;;;;;;;;;;5096444;28;20020;-71
2021/08/24 13:40:09;;;;;;;9.27;2.90;;;;;;;;;;5095619;28;20069;-71
2021/08/24 13:42:38;;;;;;;4.18;2.83;;;;;;;;;;5096101;28;20371;-71
2021/08/24 13:45:05;;;;;;;4.63;2.70;;;;;;;;;;5095776;28;20484;-71
2021/08/24 13:47:32;;;;;;;4.90;2.75;;;;;;;;;;5095588;28;20027;-70
2021/08/24 13:50:00;;;;;;;4.57;2.58;;;;;;;;;;5095881;28;20043;-70
2021/08/24 13:52:39;;;;;;;3.85;2.55;;;;;;;;;;5095774;28;20020;-70
2021/08/24 13:55:17;;;;;;;4.97;3.17;;;;;;;;;;5094012;28;20032;-70
2021/08/24 13:57:44;;;;;;;4.13;2.53;;;;;;;;;;5094326;28;20392;-70
2021/08/24 14:00:17;;;;;;;5.22;2.83;;;;;;;;;;5095593;28;20035;-70
2021/08/24 14:02:45;;;;;;;4.47;2.60;;;;;;;;;;5093760;28;20488;-69
2021/08/24 14:05:14;;;;;;;3.33;2.35;;;;;;;;;;5093598;28;20059;-70
2021/08/24 14:07:42;;;;;;;4.13;2.53;;;;;;;;;;5091688;28;20365;-70
2021/08/24 14:10:18;;;;;;;4.93;2.65;;;;;;;;;;5093853;28;20024;-70
2021/08/24 14:12:53;;;;;;;4.00;2.50;;;;;;;;;;5095299;28;20028;-70
2021/08/24 14:15:22;;;;;;;4.00;2.33;;;;;;;;;;5094790;28;20031;-70
2021/08/24 14:17:50;;;;;;;4.32;2.55;;;;;;;;;;5094838;28;20543;-69
2021/08/24 14:20:21;;;;;;;5.05;2.60;;;;;;;;;;5093888;28;20084;-71
2021/08/24 14:22:49;;;;;;;5.72;2.58;;;;;;;;;;5093663;28;20024;-70
2021/08/24 14:25:35;;;;;;;5.03;3.10;;;;;;;;;;5095091;28;20028;-71
2021/08/24 14:28:04;;;;;;;7.93;3.17;;;;;;;;;;5093606;28;20020;-70
2021/08/24 14:30:31;;;;;;;4.32;2.40;;;;;;;;;;5094679;28;20039;-71
2021/08/24 14:33:14;;;;;;;5.35;3.00;;;;;;;;;;5095062;28;20016;-70
2021/08/24 14:35:51;;;;;;;3.85;2.40;;;;;;;;;;5095004;28;20472;-71
2021/08/24 14:38:29;;;;;;;8.00;2.97;;;;;;;;;;5094857;28;20024;-70
2021/08/24 14:40:55;;;;;;;4.63;2.50;;;;;;;;;;5094804;28;20503;-70
2021/08/24 14:43:21;;;;;;;3.83;2.72;;;;;;;;;;5093131;28;20407;-70
2021/08/24 14:45:52;;;;;;;3.75;2.47;;;;;;;;;;5094744;28;20039;-71
2021/08/24 14:48:22;;;;;;;4.90;2.60;;;;;;;;;;5094791;28;20095;-70
2021/08/24 14:50:53;;;;;;;3.75;2.45;;;;;;;;;;5094490;28;20024;-70
2021/08/24 14:53:38;;;;;;;5.18;2.40;;;;;;;;;;5094722;28;20081;-71
2021/08/24 14:56:28;;;;;;;4.07;2.45;;;;;;;;;;5095059;28;20027;-70
2021/08/24 14:59:08;;;;;;;4.03;2.53;;;;;;;;;;5086321;28;20499;-73
2021/08/24 15:01:34;;;;;;;4.57;2.72;;;;;;;;;;5094503;28;20115;-72
2021/08/24 15:04:11;;;;;;;4.55;2.55;;;;;;;;;;5093970;28;20127;-71
2021/08/24 15:06:45;;;;;;;4.32;2.55;;;;;;;;;;5094513;28;20048;-71
2021/08/24 15:09:29;;;;;;;4.43;2.85;;;;;;;;;;5094232;28;20028;-71
2021/08/24 15:11:56;;;;;;;5.55;2.38;;;;;;;;;;5093917;28;20104;-70
2021/08/24 15:14:24;;;;;;;4.68;2.70;;;;;;;;;;5093764;28;20102;-71
2021/08/24 15:16:59;;;;;;;4.25;3.03;;;;;;;;;;5094470;28;20024;-70
2021/08/24 15:19:27;;;;;;;4.40;3.10;;;;;;;;;;5092494;28;20059;-71
2021/08/24 15:21:54;;;;;;;3.88;2.63;;;;;;;;;;5094037;28;20075;-70
2021/08/24 15:24:22;;;;;;;4.38;3.08;;;;;;;;;;5094354;28;20028;-70
2021/08/24 15:26:53;;;;;;;4.07;2.67;;;;;;;;;;5093829;28;20028;-70
2021/08/24 15:29:19;;;;;;;4.07;2.38;;;;;;;;;;5092065;28;20468;-70
2021/08/24 15:32:04;;;;;;;5.07;3.13;;;;;;;;;;5092515;28;20036;-70
2021/08/24 15:34:30;;;;;;;6.82;3.53;;;;;;;;;;5093412;28;20030;-70
2021/08/24 15:36:57;;;;;;;5.72;3.50;;;;;;;;;;5092696;28;20036;-71
2021/08/24 15:39:23;;;;;;;6.28;3.58;;;;;;;;;;5091653;28;20028;-70
2021/08/24 15:41:50;;;;;;;6.40;3.22;;;;;;;;;;5092586;28;20020;-71
2021/08/24 15:44:21;;;;;;;5.45;3.20;;;;;;;;;;5093624;28;20039;-70
2021/08/24 15:46:48;;;;;;;4.47;2.90;;;;;;;;;;5092017;28;20052;-71
2021/08/24 15:49:15;;;;;;;5.75;3.13;;;;;;;;;;5093660;28;20099;-71
2021/08/24 15:51:42;;;;;;;5.55;3.25;;;;;;;;;;5093854;28;20028;-71
2021/08/24 15:54:10;;;;;;;8.38;4.13;;;;;;;;;;5093602;28;20388;-71
2021/08/24 15:56:37;;;;;;;5.47;3.58;;;;;;;;;;5093640;28;20078;-71
2021/08/24 15:59:03;;;;;;;5.85;3.60;;;;;;;;;;5093567;28;20468;-71
2021/08/24 16:01:30;;;;;;;5.18;3.20;;;;;;;;;;5093248;28;20527;-71
2021/08/24 16:03:56;;;;;;;4.70;2.80;;;;;;;;;;5093264;28;20076;-71
2021/08/24 16:06:23;;;;;;;5.75;3.38;;;;;;;;;;5093557;28;20073;-71
2021/08/24 16:08:49;;;;;;;8.98;3.50;;;;;;;;;;5093139;28;20415;-71
2021/08/24 16:11:34;;;;;;;5.82;3.45;;;;;;;;;;5093413;28;20121;-70
2021/08/24 16:14:00;;;;;;;8.27;4.13;;;;;;;;;;5093362;28;20035;-71
2021/08/24 16:16:27;;;;;;;6.57;3.67;;;;;;;;;;5093093;28;20069;-71
2021/08/24 16:18:55;;;;;;;4.40;2.85;;;;;;;;;;5093464;28;20024;-71
2021/08/24 16:21:22;;;;;;;5.13;3.47;;;;;;;;;;5093272;28;20027;-71
2021/08/24 16:23:48;;;;;;;7.25;3.42;;;;;;;;;;5092822;28;20104;-70
2021/08/24 16:26:14;;;;;;;4.90;2.83;;;;;;;;;;5095480;28;20074;-70
2021/08/24 16:28:42;;;;;;;7.75;3.90;;;;;;;;;;5097044;28;20099;-70
2021/08/24 16:31:09;;;;;;;5.65;3.28;;;;;;;;;;5097430;28;20024;-70
2021/08/24 16:33:39;;;;;;;6.38;3.42;;;;;;;;;;5097311;28;20480;-71
2021/08/24 16:36:05;;;;;;;4.72;2.95;;;;;;;;;;5096828;28;20074;-71
2021/08/24 16:38:32;;;;;;;11.98;6.43;;;;;;;;;;5097450;28;20048;-71